sensor_id;sensor_type;location;lat;lon;timestamp;temperature;humidity
12426;DHT22;6277;49.824;9.562;2023-11-21T00:00:44;12.60;80.30
12426;DHT22;6277;49.824;9.562;2023-11-21T00:03:11;12.50;80.20
12426;DHT22;6277;49.824;9.562;2023-11-21T00:05:40;12.50;80.20
12426;DHT22;6277;49.824;9.562;2023-11-21T00:08:06;12.50;80.20
12426;DHT22;6277;49.824;9.562;2023-11-21T00:10:32;12.50;80.20
12426;DHT22;6277;49.824;9.562;2023-11-21T00:12:58;12.40;80.20
12426;DHT22;6277;49.824;9.562;2023-11-21T00:15:23;12.40;80.40
12426;DHT22;6277;49.824;9.562;2023-11-21T00:17:49;12.40;80.50
12426;DHT22;6277;49.824;9.562;2023-11-21T00:20:15;12.40;80.50
12426;DHT22;6277;49.824;9.562;2023-11-21T00:22:40;12.40;80.60
12426;DHT22;6277;49.824;9.562;2023-11-21T00:25:07;12.40;80.70
12426;DHT22;6277;49.824;9.562;2023-11-21T00:27:37;12.40;80.70
12426;DHT22;6277;49.824;9.562;2023-11-21T00:30:04;12.40;80.70
12426;DHT22;6277;49.824;9.562;2023-11-21T00:32:31;12.40;80.60
12426;DHT22;6277;49.824;9.562;2023-11-21T00:34:56;12.40;80.60
12426;DHT22;6277;49.824;9.562;2023-11-21T00:37:22;12.40;80.50
12426;DHT22;6277;49.824;9.562;2023-11-21T00:39:47;12.40;80.60
12426;DHT22;6277;49.824;9.562;2023-11-21T00:42:13;12.40;80.60
12426;DHT22;6277;49.824;9.562;2023-11-21T00:44:38;12.30;80.50
12426;DHT22;6277;49.824;9.562;2023-11-21T00:47:05;12.30;80.50
12426;DHT22;6277;49.824;9.562;2023-11-21T00:49:30;12.30;80.70
12426;DHT22;6277;49.824;9.562;2023-11-21T00:51:56;12.30;80.60
12426;DHT22;6277;49.824;9.562;2023-11-21T00:54:23;12.30;80.70
12426;DHT22;6277;49.824;9.562;2023-11-21T00:56:49;12.30;80.70
12426;DHT22;6277;49.824;9.562;2023-11-21T00:59:14;12.30;80.70
12426;DHT22;6277;49.824;9.562;2023-11-21T01:01:40;12.30;80.70
12426;DHT22;6277;49.824;9.562;2023-11-21T01:04:06;12.30;80.70
12426;DHT22;6277;49.824;9.562;2023-11-21T01:06:32;12.30;80.80
12426;DHT22;6277;49.824;9.562;2023-11-21T01:08:58;12.30;81.30
12426;DHT22;6277;49.824;9.562;2023-11-21T01:11:23;12.30;80.70
12426;DHT22;6277;49.824;9.562;2023-11-21T01:13:49;12.30;80.60
12426;DHT22;6277;49.824;9.562;2023-11-21T01:16:15;12.20;80.50
12426;DHT22;6277;49.824;9.562;2023-11-21T01:18:40;12.20;80.50
12426;DHT22;6277;49.824;9.562;2023-11-21T01:21:06;12.20;80.60
12426;DHT22;6277;49.824;9.562;2023-11-21T01:23:32;12.10;80.50
12426;DHT22;6277;49.824;9.562;2023-11-21T01:25:58;12.10;80.50
12426;DHT22;6277;49.824;9.562;2023-11-21T01:28:24;12.10;80.60
12426;DHT22;6277;49.824;9.562;2023-11-21T01:30:49;12.00;80.50
12426;DHT22;6277;49.824;9.562;2023-11-21T01:33:15;12.00;80.50
12426;DHT22;6277;49.824;9.562;2023-11-21T01:35:41;12.00;80.60
12426;DHT22;6277;49.824;9.562;2023-11-21T01:38:07;11.90;80.70
12426;DHT22;6277;49.824;9.562;2023-11-21T01:40:33;11.90;80.70
12426;DHT22;6277;49.824;9.562;2023-11-21T01:42:59;11.90;80.90
12426;DHT22;6277;49.824;9.562;2023-11-21T01:45:24;11.90;80.90
12426;DHT22;6277;49.824;9.562;2023-11-21T01:47:50;11.90;80.90
12426;DHT22;6277;49.824;9.562;2023-11-21T01:50:17;11.90;80.90
12426;DHT22;6277;49.824;9.562;2023-11-21T01:52:45;11.90;81.00
12426;DHT22;6277;49.824;9.562;2023-11-21T01:55:11;11.90;80.90
12426;DHT22;6277;49.824;9.562;2023-11-21T01:57:37;11.90;80.90
12426;DHT22;6277;49.824;9.562;2023-11-21T02:00:03;11.90;80.90
12426;DHT22;6277;49.824;9.562;2023-11-21T02:02:44;11.90;80.90
12426;DHT22;6277;49.824;9.562;2023-11-21T02:05:11;11.80;80.90
12426;DHT22;6277;49.824;9.562;2023-11-21T02:07:40;11.80;81.00
12426;DHT22;6277;49.824;9.562;2023-11-21T02:10:07;11.70;81.10
12426;DHT22;6277;49.824;9.562;2023-11-21T02:12:33;11.70;81.10
12426;DHT22;6277;49.824;9.562;2023-11-21T02:15:03;11.70;81.30
12426;DHT22;6277;49.824;9.562;2023-11-21T02:17:37;11.70;81.40
12426;DHT22;6277;49.824;9.562;2023-11-21T02:20:03;11.70;81.40
12426;DHT22;6277;49.824;9.562;2023-11-21T02:22:32;11.70;81.50
12426;DHT22;6277;49.824;9.562;2023-11-21T02:24:59;11.70;81.50
12426;DHT22;6277;49.824;9.562;2023-11-21T02:27:24;11.70;81.50
12426;DHT22;6277;49.824;9.562;2023-11-21T02:29:52;11.70;81.60
12426;DHT22;6277;49.824;9.562;2023-11-21T02:32:18;11.70;81.60
12426;DHT22;6277;49.824;9.562;2023-11-21T02:34:48;11.70;81.70
12426;DHT22;6277;49.824;9.562;2023-11-21T02:37:14;11.70;81.70
12426;DHT22;6277;49.824;9.562;2023-11-21T02:39:39;11.70;81.70
12426;DHT22;6277;49.824;9.562;2023-11-21T02:42:05;11.70;81.70
12426;DHT22;6277;49.824;9.562;2023-11-21T02:44:30;11.80;81.80
12426;DHT22;6277;49.824;9.562;2023-11-21T02:46:56;11.70;81.70
12426;DHT22;6277;49.824;9.562;2023-11-21T02:49:23;11.70;81.70
12426;DHT22;6277;49.824;9.562;2023-11-21T02:51:48;11.80;81.80
12426;DHT22;6277;49.824;9.562;2023-11-21T02:54:14;11.80;81.90
12426;DHT22;6277;49.824;9.562;2023-11-21T02:56:42;11.80;81.80
12426;DHT22;6277;49.824;9.562;2023-11-21T02:59:07;11.80;81.80
12426;DHT22;6277;49.824;9.562;2023-11-21T03:01:33;11.80;81.70
12426;DHT22;6277;49.824;9.562;2023-11-21T03:03:58;11.80;81.70
12426;DHT22;6277;49.824;9.562;2023-11-21T03:06:24;11.80;81.80
12426;DHT22;6277;49.824;9.562;2023-11-21T03:08:49;11.80;81.80
12426;DHT22;6277;49.824;9.562;2023-11-21T03:11:16;11.80;81.80
12426;DHT22;6277;49.824;9.562;2023-11-21T03:13:41;11.80;81.80
12426;DHT22;6277;49.824;9.562;2023-11-21T03:16:11;11.80;81.90
12426;DHT22;6277;49.824;9.562;2023-11-21T03:18:37;11.80;82.00
12426;DHT22;6277;49.824;9.562;2023-11-21T03:21:06;11.80;82.00
12426;DHT22;6277;49.824;9.562;2023-11-21T03:23:35;11.80;82.00
12426;DHT22;6277;49.824;9.562;2023-11-21T03:26:01;11.80;82.00
12426;DHT22;6277;49.824;9.562;2023-11-21T03:28:27;11.80;82.00
12426;DHT22;6277;49.824;9.562;2023-11-21T03:30:53;11.80;82.00
12426;DHT22;6277;49.824;9.562;2023-11-21T03:33:19;11.80;82.00
12426;DHT22;6277;49.824;9.562;2023-11-21T03:35:45;11.80;82.10
12426;DHT22;6277;49.824;9.562;2023-11-21T03:38:10;11.80;82.20
12426;DHT22;6277;49.824;9.562;2023-11-21T03:40:36;11.80;82.30
12426;DHT22;6277;49.824;9.562;2023-11-21T03:43:01;11.80;82.30
12426;DHT22;6277;49.824;9.562;2023-11-21T03:45:27;11.90;82.40
12426;DHT22;6277;49.824;9.562;2023-11-21T03:47:52;11.90;82.40
12426;DHT22;6277;49.824;9.562;2023-11-21T03:50:18;11.90;82.40
12426;DHT22;6277;49.824;9.562;2023-11-21T03:52:44;11.90;82.40
12426;DHT22;6277;49.824;9.562;2023-11-21T03:55:09;12.00;82.50
12426;DHT22;6277;49.824;9.562;2023-11-21T03:57:36;12.00;82.50
12426;DHT22;6277;49.824;9.562;2023-11-21T04:00:02;12.00;82.40
12426;DHT22;6277;49.824;9.562;2023-11-21T04:02:29;12.00;82.30
12426;DHT22;6277;49.824;9.562;2023-11-21T04:04:57;12.00;82.40
12426;DHT22;6277;49.824;9.562;2023-11-21T04:07:22;12.00;82.40
12426;DHT22;6277;49.824;9.562;2023-11-21T04:09:48;12.10;82.50
12426;DHT22;6277;49.824;9.562;2023-11-21T04:12:13;12.10;82.50
12426;DHT22;6277;49.824;9.562;2023-11-21T04:14:39;12.10;82.50
12426;DHT22;6277;49.824;9.562;2023-11-21T04:17:05;12.10;82.50
12426;DHT22;6277;49.824;9.562;2023-11-21T04:19:30;12.10;82.40
12426;DHT22;6277;49.824;9.562;2023-11-21T04:21:56;12.20;82.50
12426;DHT22;6277;49.824;9.562;2023-11-21T04:24:21;12.20;82.40
12426;DHT22;6277;49.824;9.562;2023-11-21T04:26:47;12.20;82.40
12426;DHT22;6277;49.824;9.562;2023-11-21T04:29:12;12.20;82.40
12426;DHT22;6277;49.824;9.562;2023-11-21T04:31:38;12.20;82.30
12426;DHT22;6277;49.824;9.562;2023-11-21T04:34:04;12.20;82.30
12426;DHT22;6277;49.824;9.562;2023-11-21T04:36:30;12.20;82.30
12426;DHT22;6277;49.824;9.562;2023-11-21T04:38:56;12.20;82.40
12426;DHT22;6277;49.824;9.562;2023-11-21T04:41:22;12.20;82.40
12426;DHT22;6277;49.824;9.562;2023-11-21T04:43:47;12.20;82.40
12426;DHT22;6277;49.824;9.562;2023-11-21T04:46:14;12.20;82.30
12426;DHT22;6277;49.824;9.562;2023-11-21T04:48:39;12.20;82.30
12426;DHT22;6277;49.824;9.562;2023-11-21T04:51:05;12.20;82.20
12426;DHT22;6277;49.824;9.562;2023-11-21T04:53:32;12.20;82.30
12426;DHT22;6277;49.824;9.562;2023-11-21T04:55:57;12.20;82.10
12426;DHT22;6277;49.824;9.562;2023-11-21T04:58:23;12.20;82.10
12426;DHT22;6277;49.824;9.562;2023-11-21T05:00:48;12.20;82.10
12426;DHT22;6277;49.824;9.562;2023-11-21T05:03:15;12.10;82.10
12426;DHT22;6277;49.824;9.562;2023-11-21T05:05:40;12.10;82.20
12426;DHT22;6277;49.824;9.562;2023-11-21T05:08:06;12.10;82.20
12426;DHT22;6277;49.824;9.562;2023-11-21T05:10:31;12.10;82.30
12426;DHT22;6277;49.824;9.562;2023-11-21T05:12:57;12.10;82.90
12426;DHT22;6277;49.824;9.562;2023-11-21T05:15:23;12.10;82.40
12426;DHT22;6277;49.824;9.562;2023-11-21T05:17:49;12.10;82.40
12426;DHT22;6277;49.824;9.562;2023-11-21T05:20:17;12.10;82.40
12426;DHT22;6277;49.824;9.562;2023-11-21T05:22:46;12.10;82.50
12426;DHT22;6277;49.824;9.562;2023-11-21T05:25:13;12.10;82.50
12426;DHT22;6277;49.824;9.562;2023-11-21T05:27:39;12.10;82.50
12426;DHT22;6277;49.824;9.562;2023-11-21T05:30:05;12.20;82.60
12426;DHT22;6277;49.824;9.562;2023-11-21T05:32:31;12.20;82.60
12426;DHT22;6277;49.824;9.562;2023-11-21T05:34:57;12.20;82.50
12426;DHT22;6277;49.824;9.562;2023-11-21T05:37:23;12.10;82.60
12426;DHT22;6277;49.824;9.562;2023-11-21T05:39:49;12.10;82.50
12426;DHT22;6277;49.824;9.562;2023-11-21T05:42:15;12.10;82.50
12426;DHT22;6277;49.824;9.562;2023-11-21T05:44:43;12.10;82.60
12426;DHT22;6277;49.824;9.562;2023-11-21T05:47:09;12.10;82.60
12426;DHT22;6277;49.824;9.562;2023-11-21T05:49:35;12.10;82.60
12426;DHT22;6277;49.824;9.562;2023-11-21T05:52:01;12.10;82.60
12426;DHT22;6277;49.824;9.562;2023-11-21T05:54:27;12.10;82.60
12426;DHT22;6277;49.824;9.562;2023-11-21T05:56:52;12.10;82.70
12426;DHT22;6277;49.824;9.562;2023-11-21T05:59:18;12.20;82.70
12426;DHT22;6277;49.824;9.562;2023-11-21T06:01:43;12.20;82.70
12426;DHT22;6277;49.824;9.562;2023-11-21T06:04:11;12.20;82.80
12426;DHT22;6277;49.824;9.562;2023-11-21T06:06:36;12.20;82.70
12426;DHT22;6277;49.824;9.562;2023-11-21T06:09:02;12.10;82.60
12426;DHT22;6277;49.824;9.562;2023-11-21T06:11:28;12.10;82.60
12426;DHT22;6277;49.824;9.562;2023-11-21T06:13:53;12.10;82.70
12426;DHT22;6277;49.824;9.562;2023-11-21T06:16:19;12.10;82.70
12426;DHT22;6277;49.824;9.562;2023-11-21T06:18:48;12.10;82.80
12426;DHT22;6277;49.824;9.562;2023-11-21T06:21:13;12.10;82.70
12426;DHT22;6277;49.824;9.562;2023-11-21T06:23:39;12.10;83.40
12426;DHT22;6277;49.824;9.562;2023-11-21T06:26:05;12.10;82.70
12426;DHT22;6277;49.824;9.562;2023-11-21T06:28:31;12.10;82.80
12426;DHT22;6277;49.824;9.562;2023-11-21T06:30:57;12.10;82.80
12426;DHT22;6277;49.824;9.562;2023-11-21T06:33:33;12.10;82.80
12426;DHT22;6277;49.824;9.562;2023-11-21T06:35:59;12.10;82.80
12426;DHT22;6277;49.824;9.562;2023-11-21T06:38:28;12.10;82.80
12426;DHT22;6277;49.824;9.562;2023-11-21T06:40:56;12.10;82.80
12426;DHT22;6277;49.824;9.562;2023-11-21T06:43:22;12.10;82.80
12426;DHT22;6277;49.824;9.562;2023-11-21T06:45:47;12.00;82.70
12426;DHT22;6277;49.824;9.562;2023-11-21T06:48:13;12.00;82.80
12426;DHT22;6277;49.824;9.562;2023-11-21T06:50:39;12.00;82.80
12426;DHT22;6277;49.824;9.562;2023-11-21T06:53:04;12.00;82.80
12426;DHT22;6277;49.824;9.562;2023-11-21T06:55:32;12.00;82.90
12426;DHT22;6277;49.824;9.562;2023-11-21T06:57:58;12.00;83.00
12426;DHT22;6277;49.824;9.562;2023-11-21T07:00:23;12.10;83.10
12426;DHT22;6277;49.824;9.562;2023-11-21T07:02:49;12.10;83.10
12426;DHT22;6277;49.824;9.562;2023-11-21T07:05:14;12.10;83.10
12426;DHT22;6277;49.824;9.562;2023-11-21T07:07:40;12.10;83.10
12426;DHT22;6277;49.824;9.562;2023-11-21T07:10:06;12.10;83.10
12426;DHT22;6277;49.824;9.562;2023-11-21T07:12:33;12.20;83.10
12426;DHT22;6277;49.824;9.562;2023-11-21T07:14:59;12.20;83.10
12426;DHT22;6277;49.824;9.562;2023-11-21T07:17:25;12.20;83.10
12426;DHT22;6277;49.824;9.562;2023-11-21T07:19:51;12.20;83.10
12426;DHT22;6277;49.824;9.562;2023-11-21T07:22:16;12.20;83.10
12426;DHT22;6277;49.824;9.562;2023-11-21T07:24:49;12.20;83.10
12426;DHT22;6277;49.824;9.562;2023-11-21T07:27:16;12.20;83.10
12426;DHT22;6277;49.824;9.562;2023-11-21T07:29:41;12.20;83.10
12426;DHT22;6277;49.824;9.562;2023-11-21T07:32:07;12.20;83.20
12426;DHT22;6277;49.824;9.562;2023-11-21T07:34:34;12.20;83.30
12426;DHT22;6277;49.824;9.562;2023-11-21T07:37:00;12.20;83.30
12426;DHT22;6277;49.824;9.562;2023-11-21T07:39:26;12.30;83.50
12426;DHT22;6277;49.824;9.562;2023-11-21T07:41:51;12.30;83.40
12426;DHT22;6277;49.824;9.562;2023-11-21T07:44:17;12.30;83.40
12426;DHT22;6277;49.824;9.562;2023-11-21T07:46:43;12.30;83.30
12426;DHT22;6277;49.824;9.562;2023-11-21T07:49:08;12.30;83.20
12426;DHT22;6277;49.824;9.562;2023-11-21T07:51:34;12.40;83.40
12426;DHT22;6277;49.824;9.562;2023-11-21T07:54:00;12.40;83.30
12426;DHT22;6277;49.824;9.562;2023-11-21T07:56:26;12.40;83.30
12426;DHT22;6277;49.824;9.562;2023-11-21T07:58:51;12.40;83.40
12426;DHT22;6277;49.824;9.562;2023-11-21T08:01:17;12.40;83.50
12426;DHT22;6277;49.824;9.562;2023-11-21T08:03:43;12.50;83.50
12426;DHT22;6277;49.824;9.562;2023-11-21T08:06:09;12.50;83.50
12426;DHT22;6277;49.824;9.562;2023-11-21T08:08:35;12.50;83.50
12426;DHT22;6277;49.824;9.562;2023-11-21T08:11:00;12.60;83.60
12426;DHT22;6277;49.824;9.562;2023-11-21T08:13:28;12.60;83.50
12426;DHT22;6277;49.824;9.562;2023-11-21T08:15:56;12.60;83.50
12426;DHT22;6277;49.824;9.562;2023-11-21T08:18:23;12.70;83.60
12426;DHT22;6277;49.824;9.562;2023-11-21T08:20:49;12.70;83.60
12426;DHT22;6277;49.824;9.562;2023-11-21T08:23:17;12.70;83.40
12426;DHT22;6277;49.824;9.562;2023-11-21T08:25:44;12.70;83.10
12426;DHT22;6277;49.824;9.562;2023-11-21T08:28:09;12.70;83.30
12426;DHT22;6277;49.824;9.562;2023-11-21T08:30:35;12.70;83.30
12426;DHT22;6277;49.824;9.562;2023-11-21T08:33:01;12.80;83.30
12426;DHT22;6277;49.824;9.562;2023-11-21T08:35:28;12.80;83.30
12426;DHT22;6277;49.824;9.562;2023-11-21T08:37:54;12.80;83.40
12426;DHT22;6277;49.824;9.562;2023-11-21T08:40:20;12.80;83.40
12426;DHT22;6277;49.824;9.562;2023-11-21T08:42:47;12.90;83.40
12426;DHT22;6277;49.824;9.562;2023-11-21T08:45:14;12.90;83.40
12426;DHT22;6277;49.824;9.562;2023-11-21T08:47:39;13.00;83.40
12426;DHT22;6277;49.824;9.562;2023-11-21T08:50:08;13.00;83.40
12426;DHT22;6277;49.824;9.562;2023-11-21T08:52:34;13.00;83.80
12426;DHT22;6277;49.824;9.562;2023-11-21T08:55:00;13.00;83.20
12426;DHT22;6277;49.824;9.562;2023-11-21T08:57:33;13.10;83.30
12426;DHT22;6277;49.824;9.562;2023-11-21T08:59:59;13.10;83.30
12426;DHT22;6277;49.824;9.562;2023-11-21T09:02:27;13.10;83.30
12426;DHT22;6277;49.824;9.562;2023-11-21T09:04:53;13.10;83.20
12426;DHT22;6277;49.824;9.562;2023-11-21T09:07:19;13.20;83.30
12426;DHT22;6277;49.824;9.562;2023-11-21T09:09:46;13.30;83.30
12426;DHT22;6277;49.824;9.562;2023-11-21T09:12:12;13.20;83.20
12426;DHT22;6277;49.824;9.562;2023-11-21T09:14:38;13.30;83.20
12426;DHT22;6277;49.824;9.562;2023-11-21T09:17:04;13.30;83.80
12426;DHT22;6277;49.824;9.562;2023-11-21T09:19:38;13.30;83.10
12426;DHT22;6277;49.824;9.562;2023-11-21T09:22:04;13.40;83.20
12426;DHT22;6277;49.824;9.562;2023-11-21T09:24:31;13.40;83.10
12426;DHT22;6277;49.824;9.562;2023-11-21T09:26:56;13.40;83.20
12426;DHT22;6277;49.824;9.562;2023-11-21T09:29:22;13.50;83.30
12426;DHT22;6277;49.824;9.562;2023-11-21T09:31:48;13.50;83.30
12426;DHT22;6277;49.824;9.562;2023-11-21T09:34:16;13.60;83.50
12426;DHT22;6277;49.824;9.562;2023-11-21T09:36:45;13.60;83.40
12426;DHT22;6277;49.824;9.562;2023-11-21T09:39:10;13.70;83.40
12426;DHT22;6277;49.824;9.562;2023-11-21T09:41:52;13.80;83.30
12426;DHT22;6277;49.824;9.562;2023-11-21T09:44:55;13.90;82.70
12426;DHT22;6277;49.824;9.562;2023-11-21T09:47:24;13.90;82.50
12426;DHT22;6277;49.824;9.562;2023-11-21T09:49:54;14.00;83.20
12426;DHT22;6277;49.824;9.562;2023-11-21T09:52:26;14.10;82.80
12426;DHT22;6277;49.824;9.562;2023-11-21T09:54:52;14.10;82.70
12426;DHT22;6277;49.824;9.562;2023-11-21T09:57:20;14.20;82.80
12426;DHT22;6277;49.824;9.562;2023-11-21T09:59:47;14.20;82.60
12426;DHT22;6277;49.824;9.562;2023-11-21T10:02:16;14.30;82.90
12426;DHT22;6277;49.824;9.562;2023-11-21T10:04:44;14.40;82.60
12426;DHT22;6277;49.824;9.562;2023-11-21T10:07:12;14.40;82.60
12426;DHT22;6277;49.824;9.562;2023-11-21T10:09:40;14.50;82.50
12426;DHT22;6277;49.824;9.562;2023-11-21T10:12:07;14.50;82.50
12426;DHT22;6277;49.824;9.562;2023-11-21T10:14:37;14.60;82.20
12426;DHT22;6277;49.824;9.562;2023-11-21T10:17:07;14.60;81.90
12426;DHT22;6277;49.824;9.562;2023-11-21T10:19:35;14.70;82.10
12426;DHT22;6277;49.824;9.562;2023-11-21T10:22:02;14.70;81.90
12426;DHT22;6277;49.824;9.562;2023-11-21T10:24:29;14.80;82.00
12426;DHT22;6277;49.824;9.562;2023-11-21T10:26:54;14.80;81.90
12426;DHT22;6277;49.824;9.562;2023-11-21T10:29:20;14.90;81.60
12426;DHT22;6277;49.824;9.562;2023-11-21T10:31:49;14.90;81.40
12426;DHT22;6277;49.824;9.562;2023-11-21T10:34:19;14.90;81.10
12426;DHT22;6277;49.824;9.562;2023-11-21T10:36:45;14.90;80.70
12426;DHT22;6277;49.824;9.562;2023-11-21T10:39:16;14.90;80.80
12426;DHT22;6277;49.824;9.562;2023-11-21T10:41:46;14.90;80.10
12426;DHT22;6277;49.824;9.562;2023-11-21T10:44:17;14.90;80.60
12426;DHT22;6277;49.824;9.562;2023-11-21T10:46:50;14.80;80.90
12426;DHT22;6277;49.824;9.562;2023-11-21T10:49:25;14.90;80.20
12426;DHT22;6277;49.824;9.562;2023-11-21T10:51:51;14.90;80.50
12426;DHT22;6277;49.824;9.562;2023-11-21T10:54:19;14.90;80.30
12426;DHT22;6277;49.824;9.562;2023-11-21T10:56:47;14.90;80.20
12426;DHT22;6277;49.824;9.562;2023-11-21T10:59:13;14.90;80.10
12426;DHT22;6277;49.824;9.562;2023-11-21T11:01:43;14.90;80.20
12426;DHT22;6277;49.824;9.562;2023-11-21T11:04:11;14.90;79.90
12426;DHT22;6277;49.824;9.562;2023-11-21T11:06:45;14.90;79.90
12426;DHT22;6277;49.824;9.562;2023-11-21T11:09:13;14.90;79.70
12426;DHT22;6277;49.824;9.562;2023-11-21T11:11:40;14.90;79.90
12426;DHT22;6277;49.824;9.562;2023-11-21T11:14:10;14.90;79.80
12426;DHT22;6277;49.824;9.562;2023-11-21T11:16:37;15.00;79.60
12426;DHT22;6277;49.824;9.562;2023-11-21T11:19:05;14.90;79.60
12426;DHT22;6277;49.824;9.562;2023-11-21T11:26:42;14.90;78.90
12426;DHT22;6277;49.824;9.562;2023-11-21T11:33:04;15.00;79.20
12426;DHT22;6277;49.824;9.562;2023-11-21T11:35:12;15.10;78.90
12426;DHT22;6277;49.824;9.562;2023-11-21T11:37:42;15.10;79.30
12426;DHT22;6277;49.824;9.562;2023-11-21T11:40:08;15.10;79.60
12426;DHT22;6277;49.824;9.562;2023-11-21T11:42:36;15.10;79.40
12426;DHT22;6277;49.824;9.562;2023-11-21T11:45:02;15.10;79.30
12426;DHT22;6277;49.824;9.562;2023-11-21T11:47:32;15.10;79.20
12426;DHT22;6277;49.824;9.562;2023-11-21T11:50:05;15.10;78.70
12426;DHT22;6277;49.824;9.562;2023-11-21T11:52:52;15.10;78.30
12426;DHT22;6277;49.824;9.562;2023-11-21T11:55:21;15.10;78.30
12426;DHT22;6277;49.824;9.562;2023-11-21T11:57:53;15.00;78.00
12426;DHT22;6277;49.824;9.562;2023-11-21T12:02:58;14.80;77.60
12426;DHT22;6277;49.824;9.562;2023-11-21T12:05:25;14.70;77.40
12426;DHT22;6277;49.824;9.562;2023-11-21T12:07:53;14.60;77.70
12426;DHT22;6277;49.824;9.562;2023-11-21T12:10:26;14.50;77.90
12426;DHT22;6277;49.824;9.562;2023-11-21T12:12:55;14.40;77.70
12426;DHT22;6277;49.824;9.562;2023-11-21T12:15:21;14.40;77.80
12426;DHT22;6277;49.824;9.562;2023-11-21T12:17:47;14.30;78.00
12426;DHT22;6277;49.824;9.562;2023-11-21T12:20:16;14.20;78.00
12426;DHT22;6277;49.824;9.562;2023-11-21T12:22:57;14.20;78.10
12426;DHT22;6277;49.824;9.562;2023-11-21T12:25:29;14.20;77.70
12426;DHT22;6277;49.824;9.562;2023-11-21T12:27:58;14.20;78.20
12426;DHT22;6277;49.824;9.562;2023-11-21T12:30:29;14.20;78.70
12426;DHT22;6277;49.824;9.562;2023-11-21T12:32:56;14.30;78.30
12426;DHT22;6277;49.824;9.562;2023-11-21T12:35:27;14.30;78.90
12426;DHT22;6277;49.824;9.562;2023-11-21T12:37:55;14.40;78.60
12426;DHT22;6277;49.824;9.562;2023-11-21T12:40:22;14.50;79.00
12426;DHT22;6277;49.824;9.562;2023-11-21T12:42:51;14.60;79.10
12426;DHT22;6277;49.824;9.562;2023-11-21T12:47:50;14.80;78.80
12426;DHT22;6277;49.824;9.562;2023-11-21T12:50:19;14.90;78.30
12426;DHT22;6277;49.824;9.562;2023-11-21T12:52:47;15.00;78.50
12426;DHT22;6277;49.824;9.562;2023-11-21T12:55:22;15.10;78.80
12426;DHT22;6277;49.824;9.562;2023-11-21T12:57:53;15.20;78.00
12426;DHT22;6277;49.824;9.562;2023-11-21T13:00:22;15.30;78.10
12426;DHT22;6277;49.824;9.562;2023-11-21T13:02:57;15.40;78.40
12426;DHT22;6277;49.824;9.562;2023-11-21T13:05:36;15.40;77.90
12426;DHT22;6277;49.824;9.562;2023-11-21T13:08:08;15.50;77.10
12426;DHT22;6277;49.824;9.562;2023-11-21T13:10:36;15.60;77.90
12426;DHT22;6277;49.824;9.562;2023-11-21T13:13:03;15.60;77.50
12426;DHT22;6277;49.824;9.562;2023-11-21T13:15:31;15.70;77.30
12426;DHT22;6277;49.824;9.562;2023-11-21T13:17:58;15.70;77.00
12426;DHT22;6277;49.824;9.562;2023-11-21T13:20:25;15.70;76.40
12426;DHT22;6277;49.824;9.562;2023-11-21T13:22:55;15.70;76.00
12426;DHT22;6277;49.824;9.562;2023-11-21T13:25:29;15.70;75.50
12426;DHT22;6277;49.824;9.562;2023-11-21T13:27:57;15.60;75.90
12426;DHT22;6277;49.824;9.562;2023-11-21T13:30:25;15.60;75.90
12426;DHT22;6277;49.824;9.562;2023-11-21T13:32:59;15.50;75.70
12426;DHT22;6277;49.824;9.562;2023-11-21T13:35:28;15.50;75.60
12426;DHT22;6277;49.824;9.562;2023-11-21T13:38:04;15.40;75.40
12426;DHT22;6277;49.824;9.562;2023-11-21T13:40:31;15.40;74.70
12426;DHT22;6277;49.824;9.562;2023-11-21T13:42:59;15.30;75.30
12426;DHT22;6277;49.824;9.562;2023-11-21T13:45:29;15.30;75.10
12426;DHT22;6277;49.824;9.562;2023-11-21T13:47:56;15.30;75.10
12426;DHT22;6277;49.824;9.562;2023-11-21T13:50:25;15.20;74.90
12426;DHT22;6277;49.824;9.562;2023-11-21T13:52:58;15.20;74.60
12426;DHT22;6277;49.824;9.562;2023-11-21T13:55:29;15.20;74.30
12426;DHT22;6277;49.824;9.562;2023-11-21T13:57:54;15.10;74.10
12426;DHT22;6277;49.824;9.562;2023-11-21T14:00:20;15.00;73.90
12426;DHT22;6277;49.824;9.562;2023-11-21T14:03:11;14.90;74.00
12426;DHT22;6277;49.824;9.562;2023-11-21T14:05:44;14.80;74.00
12426;DHT22;6277;49.824;9.562;2023-11-21T14:08:12;14.80;74.00
12426;DHT22;6277;49.824;9.562;2023-11-21T14:10:42;14.70;74.00
12426;DHT22;6277;49.824;9.562;2023-11-21T14:13:18;14.70;74.10
12426;DHT22;6277;49.824;9.562;2023-11-21T14:15:45;14.60;74.00
12426;DHT22;6277;49.824;9.562;2023-11-21T14:18:12;14.60;74.10
12426;DHT22;6277;49.824;9.562;2023-11-21T14:20:40;14.50;74.20
12426;DHT22;6277;49.824;9.562;2023-11-21T14:23:06;14.50;74.20
12426;DHT22;6277;49.824;9.562;2023-11-21T14:25:33;14.50;74.30
12426;DHT22;6277;49.824;9.562;2023-11-21T14:28:00;14.40;74.20
12426;DHT22;6277;49.824;9.562;2023-11-21T14:30:25;14.40;74.10
12426;DHT22;6277;49.824;9.562;2023-11-21T14:32:52;14.40;74.10
12426;DHT22;6277;49.824;9.562;2023-11-21T14:35:18;14.30;73.90
12426;DHT22;6277;49.824;9.562;2023-11-21T14:37:43;14.30;73.90
12426;DHT22;6277;49.824;9.562;2023-11-21T14:40:10;14.20;73.90
12426;DHT22;6277;49.824;9.562;2023-11-21T14:42:36;14.10;74.50
12426;DHT22;6277;49.824;9.562;2023-11-21T14:45:05;14.10;73.90
12426;DHT22;6277;49.824;9.562;2023-11-21T14:47:32;14.00;73.90
12426;DHT22;6277;49.824;9.562;2023-11-21T14:50:00;13.90;74.00
12426;DHT22;6277;49.824;9.562;2023-11-21T14:52:32;13.90;74.10
12426;DHT22;6277;49.824;9.562;2023-11-21T14:55:01;13.80;74.00
12426;DHT22;6277;49.824;9.562;2023-11-21T14:57:56;13.80;74.10
12426;DHT22;6277;49.824;9.562;2023-11-21T15:00:21;13.70;74.80
12426;DHT22;6277;49.824;9.562;2023-11-21T15:02:59;13.70;74.10
12426;DHT22;6277;49.824;9.562;2023-11-21T15:05:25;13.60;74.10
12426;DHT22;6277;49.824;9.562;2023-11-21T15:07:53;13.60;74.10
12426;DHT22;6277;49.824;9.562;2023-11-21T15:10:22;13.50;74.10
12426;DHT22;6277;49.824;9.562;2023-11-21T15:12:55;13.40;74.00
12426;DHT22;6277;49.824;9.562;2023-11-21T15:15:21;13.40;74.00
12426;DHT22;6277;49.824;9.562;2023-11-21T15:17:46;13.30;74.10
12426;DHT22;6277;49.824;9.562;2023-11-21T15:20:13;13.30;74.10
12426;DHT22;6277;49.824;9.562;2023-11-21T15:22:44;13.20;74.20
12426;DHT22;6277;49.824;9.562;2023-11-21T15:25:10;13.20;74.40
12426;DHT22;6277;49.824;9.562;2023-11-21T15:27:36;13.20;74.40
12426;DHT22;6277;49.824;9.562;2023-11-21T15:30:02;13.10;74.40
12426;DHT22;6277;49.824;9.562;2023-11-21T15:32:31;13.10;74.40
12426;DHT22;6277;49.824;9.562;2023-11-21T15:34:56;13.10;74.40
12426;DHT22;6277;49.824;9.562;2023-11-21T15:37:22;13.00;74.40
12426;DHT22;6277;49.824;9.562;2023-11-21T15:39:47;13.00;74.50
12426;DHT22;6277;49.824;9.562;2023-11-21T15:42:13;13.00;74.60
12426;DHT22;6277;49.824;9.562;2023-11-21T15:44:39;12.90;74.70
12426;DHT22;6277;49.824;9.562;2023-11-21T15:47:05;12.90;74.80
12426;DHT22;6277;49.824;9.562;2023-11-21T15:49:33;12.80;74.80
12426;DHT22;6277;49.824;9.562;2023-11-21T15:52:04;12.80;74.90
12426;DHT22;6277;49.824;9.562;2023-11-21T15:54:31;12.80;74.90
12426;DHT22;6277;49.824;9.562;2023-11-21T15:57:00;12.80;74.90
12426;DHT22;6277;49.824;9.562;2023-11-21T15:59:26;12.80;74.90